Atlantic - Newfoundland: Past 24 Hour Conditions

 

Natashquan Airport

05:00 PM EST 29 January 2015
Disclaimer

This table is a summary of hourly weather conditions for the past 24 hours.
Please note that these observations might not always be representative of weather conditions over their associated marine area.

Date / Time
(EST)
Wind(knots) Conditions Visibility(km) Pressure(kPa) Air tempC) Relative humidity(%) Dew pointC) Wind Chill
29 January 2015
17:00 N 3 Clear 16 102.4 -16 82 -18 -19
16:00 SE 2 Clear 16 102.3 -12 71 -16 -15
15:00 calm Sunny 16 102.3 -10 65 -15 *
14:00 N 3 Sunny 16 102.2 -10 65 -15 -13
13:00 N 6 Sunny 16 102.2 -10 64 -16 -16
12:00 NW 8 Sunny 16 102.2 -11 67 -16 -18
11:00 NNW 12 gust 17 Sunny 16 102.1 -12 66 -17 -20
10:00 NW 9 Sunny 16 102.2 -14 73 -18 -22
9:00 WNW 9 Sunny 16 102.2 -15 74 -19 -24
8:00 WNW 8 Sunny 16 102.1 -17 78 -20 -25
7:00 WNW 9 Sunny 16 101.9 -16 76 -20 -25
6:00 WNW 11 Clear 16 101.7 -16 78 -19 -26
5:00 WNW 12 Clear 16 101.6 -16 81 -19 -26
4:00 WNW 4 Clear 16 101.5 -16 79 -19 -22
3:00 NW 11 gust 16 Clear 16 101.3 -16 77 -19 -25
2:00 NNW 10 gust 16 Clear 16 101.2 -16 77 -19 -25
1:00 NNW 14 Clear 16 101.2 -16 77 -19 -26
0:00 NNW 10 Clear 16 101.1 -15 78 -18 -24
28 January 2015
23:00 N 11 Clear 16 101.0 -14 79 -17 -23
22:00 N 11 gust 16 Light Snow 16 101.0 -13 81 -16 -22
21:00 N 11 gust 16 Cloudy 16 101.1 -13 82 -16 -22
20:00 N 12 gust 17 Cloudy 16 101.0 -13 85 -15 -22
19:00 N 12 gust 20 Light Snow 10 101.0 -13 88 -14 -22
18:00 N 13 gust 19 Light Snow 6 101.0 -12 89 -14 -22
17:00 N 15 gust 21 Light Snow 6 101.0 -12 87 -14 -22
Map of Atlantic - Newfoundland marine weather areas Southwestern Grand Banks - 44138 Banquereau - 44139 Tail of the Bank - 44140 Nickerson Bank - 44251 Northeast Burgeo Bank - 44255 Blanc-Sablon Airport Cap Whittle Chevery Natashquan Airport Heath Point Miscou Island Grand Étang Ingonish Beach North Mountain St.Paul Island J.A. Douglas McCurdy Sydney Airport Charlottetown Airport East Point North Cape Argentia Bonavista Burgeo Cape Race Corner Brook Daniel's Harbour Englee Ferolle Point La Scie Port aux Basques Rocky Harbour Sagona Island St. Anthony Airport St. John's Int'l Airport St. Lawrence Stephenville Airport Twillingate Winterland Wreckhouse Cartwright Airport Mary's Harbour Grates Cove Pool's Island Marticot Island Long Pond Îles de la Madeleine Airport
Legend:
buoy Buoy
land station Land Station

Atlantic - Newfoundland Area

Another Region

What we are doing

Date modified: